ANS900 SAEZ-SAAV
Flight info
| Callsign | ANS900 |
|---|---|
| Flight time | 0h 39m |
| Altitude | 24000 |
| Route | BIVAM3A BIVAM W8 PAR DCT SVO |
| Aircraft | B737/M-MSDFGHILRVWSB1/LB1 |
Departure
| Time | 2026-04-30 04:23 |
|---|---|
| Airport | Ezeiza International Airport - Ministro Pistarini (SAEZ) |
Arrival
| Time | 2026-04-30 05:03 |
|---|---|
| Airport | Sauce Viejo Airport (SAAV) |
| Time | Latitude | Longitude | Altitude | Speed | Heading |
|---|---|---|---|---|---|
| 2026-04-30 03:54 | -34.80957 | -58.53719 | 74 ft | 0 kts | 252° |
| 2026-04-30 04:16 | -34.80954 | -58.53707 | 67 ft | 3 kts | 254° |
| 2026-04-30 04:16 | -34.80949 | -58.53683 | 74 ft | 3 kts | 258° |
| 2026-04-30 04:16 | -34.80945 | -58.53658 | 74 ft | 3 kts | 265° |
| 2026-04-30 04:17 | -34.80945 | -58.53634 | 69 ft | 3 kts | 277° |
| 2026-04-30 04:17 | -34.80949 | -58.53612 | 71 ft | 3 kts | 309° |
| 2026-04-30 04:17 | -34.80960 | -58.53602 | 65 ft | 1 kts | 344° |
| 2026-04-30 04:17 | -34.80963 | -58.53601 | 66 ft | 0 kts | 344° |
| 2026-04-30 04:20 | -34.80934 | -58.53601 | 67 ft | 8 kts | 10° |
| 2026-04-30 04:20 | -34.80896 | -58.53558 | 69 ft | 8 kts | 70° |
| 2026-04-30 04:20 | -34.80886 | -58.53517 | 71 ft | 8 kts | 73° |
| 2026-04-30 04:20 | -34.80871 | -58.53456 | 82 ft | 7 kts | 74° |
| 2026-04-30 04:21 | -34.80858 | -58.53397 | 81 ft | 7 kts | 84° |
| 2026-04-30 04:21 | -34.80893 | -58.53374 | 83 ft | 0 kts | 164° |
| 2026-04-30 04:23 | -34.80958 | -58.53351 | 82 ft | 41 kts | 164° |
| 2026-04-30 04:23 | -34.81544 | -58.53147 | 80 ft | 131 kts | 164° |
| 2026-04-30 04:23 | -34.82595 | -58.52778 | 488 ft | 169 kts | 163° |
| 2026-04-30 04:23 | -34.83772 | -58.52482 | 1459 ft | 180 kts | 185° |
| 2026-04-30 04:24 | -34.84985 | -58.53018 | 2230 ft | 198 kts | 214° |
| 2026-04-30 04:24 | -34.86017 | -58.54273 | 2682 ft | 226 kts | 236° |
| 2026-04-30 04:24 | -34.86543 | -58.56130 | 3261 ft | 248 kts | 269° |
| 2026-04-30 04:24 | -34.85987 | -58.58134 | 4086 ft | 261 kts | 308° |
| 2026-04-30 04:25 | -34.84558 | -58.59492 | 5344 ft | 261 kts | 327° |
| 2026-04-30 04:25 | -34.82938 | -58.60589 | 5818 ft | 268 kts | 329° |
| 2026-04-30 04:25 | -34.81274 | -58.61670 | 6056 ft | 274 kts | 328° |
| 2026-04-30 04:25 | -34.79595 | -58.62776 | 6804 ft | 279 kts | 327° |
| 2026-04-30 04:26 | -34.77911 | -58.63911 | 7980 ft | 277 kts | 326° |
| 2026-04-30 04:26 | -34.76196 | -58.65095 | 9084 ft | 281 kts | 326° |
| 2026-04-30 04:26 | -34.74486 | -58.66297 | 10104 ft | 286 kts | 325° |
| 2026-04-30 04:26 | -34.72758 | -58.67530 | 10736 ft | 303 kts | 324° |
| 2026-04-30 04:27 | -34.70864 | -58.68903 | 11001 ft | 332 kts | 324° |
| 2026-04-30 04:27 | -34.68820 | -58.70389 | 11733 ft | 342 kts | 324° |
| 2026-04-30 04:27 | -34.66683 | -58.71942 | 12718 ft | 345 kts | 323° |
| 2026-04-30 04:27 | -34.64613 | -58.73448 | 13712 ft | 348 kts | 323° |
| 2026-04-30 04:28 | -34.62521 | -58.74975 | 14563 ft | 353 kts | 322° |
| 2026-04-30 04:28 | -34.60353 | -58.76561 | 15446 ft | 356 kts | 322° |
| 2026-04-30 04:28 | -34.58225 | -58.78118 | 16299 ft | 359 kts | 322° |
| 2026-04-30 04:28 | -34.56068 | -58.79697 | 17144 ft | 363 kts | 321° |
| 2026-04-30 04:29 | -34.53927 | -58.81266 | 17964 ft | 367 kts | 321° |
| 2026-04-30 04:29 | -34.51728 | -58.82876 | 18735 ft | 371 kts | 321° |
| 2026-04-30 04:29 | -34.49502 | -58.84506 | 19443 ft | 375 kts | 320° |
| 2026-04-30 04:29 | -34.47251 | -58.86155 | 20119 ft | 380 kts | 320° |
| 2026-04-30 04:30 | -34.44977 | -58.87818 | 20772 ft | 385 kts | 320° |
| 2026-04-30 04:30 | -34.42672 | -58.89503 | 21438 ft | 389 kts | 319° |
| 2026-04-30 04:30 | -34.40351 | -58.91197 | 22157 ft | 390 kts | 319° |
| 2026-04-30 04:30 | -34.38026 | -58.92888 | 23030 ft | 388 kts | 319° |
| 2026-04-30 04:31 | -34.35707 | -58.94574 | 23710 ft | 390 kts | 318° |
| 2026-04-30 04:31 | -34.33386 | -58.96262 | 23978 ft | 387 kts | 318° |
| 2026-04-30 04:31 | -34.31074 | -58.97943 | 24006 ft | 388 kts | 318° |
| 2026-04-30 04:31 | -34.28768 | -58.99620 | 24019 ft | 386 kts | 318° |
| 2026-04-30 04:32 | -34.26467 | -59.01292 | 24029 ft | 386 kts | 318° |
| 2026-04-30 04:32 | -34.24163 | -59.02965 | 24033 ft | 385 kts | 318° |
| 2026-04-30 04:32 | -34.21866 | -59.04635 | 24008 ft | 385 kts | 319° |
| 2026-04-30 04:32 | -34.19571 | -59.06301 | 24015 ft | 385 kts | 319° |
| 2026-04-30 04:33 | -34.17278 | -59.07965 | 24024 ft | 385 kts | 319° |
| 2026-04-30 04:33 | -34.14979 | -59.09632 | 24030 ft | 385 kts | 319° |
| 2026-04-30 04:33 | -34.12652 | -59.11318 | 24026 ft | 385 kts | 319° |
| 2026-04-30 04:33 | -34.10355 | -59.12981 | 24031 ft | 386 kts | 319° |
| 2026-04-30 04:34 | -34.08051 | -59.14649 | 24024 ft | 386 kts | 319° |
| 2026-04-30 04:34 | -34.05774 | -59.16295 | 24027 ft | 386 kts | 319° |
| 2026-04-30 04:34 | -34.03470 | -59.17960 | 23995 ft | 386 kts | 319° |
| 2026-04-30 04:34 | -34.01163 | -59.19625 | 24026 ft | 386 kts | 319° |
| 2026-04-30 04:35 | -33.98857 | -59.21289 | 24021 ft | 386 kts | 319° |
| 2026-04-30 04:35 | -33.96555 | -59.22949 | 24025 ft | 386 kts | 319° |
| 2026-04-30 04:35 | -33.94244 | -59.24614 | 24030 ft | 387 kts | 319° |
| 2026-04-30 04:35 | -33.91906 | -59.26299 | 24031 ft | 387 kts | 319° |
| 2026-04-30 04:36 | -33.89621 | -59.27943 | 24032 ft | 387 kts | 319° |
| 2026-04-30 04:36 | -33.87312 | -59.29604 | 24028 ft | 387 kts | 319° |
| 2026-04-30 04:36 | -33.85001 | -59.31265 | 24005 ft | 387 kts | 319° |
| 2026-04-30 04:36 | -33.82694 | -59.32923 | 24020 ft | 386 kts | 319° |
| 2026-04-30 04:37 | -33.80386 | -59.34579 | 24024 ft | 386 kts | 319° |
| 2026-04-30 04:37 | -33.78078 | -59.36235 | 24027 ft | 386 kts | 319° |
| 2026-04-30 04:37 | -33.75769 | -59.37890 | 24030 ft | 386 kts | 319° |
| 2026-04-30 04:37 | -33.73464 | -59.39542 | 24031 ft | 386 kts | 319° |
| 2026-04-30 04:38 | -33.71155 | -59.41196 | 24033 ft | 386 kts | 319° |
| 2026-04-30 04:38 | -33.68849 | -59.42846 | 24032 ft | 386 kts | 319° |
| 2026-04-30 04:38 | -33.66542 | -59.44496 | 24032 ft | 386 kts | 319° |
| 2026-04-30 04:38 | -33.64234 | -59.46146 | 24018 ft | 386 kts | 319° |
| 2026-04-30 04:39 | -33.61925 | -59.47795 | 24026 ft | 386 kts | 319° |
| 2026-04-30 04:39 | -33.59612 | -59.49447 | 24030 ft | 386 kts | 319° |
| 2026-04-30 04:39 | -33.57299 | -59.51097 | 24035 ft | 386 kts | 319° |
| 2026-04-30 04:39 | -33.54986 | -59.52746 | 24034 ft | 387 kts | 319° |
| 2026-04-30 04:40 | -33.52663 | -59.54402 | 24036 ft | 387 kts | 319° |
| 2026-04-30 04:40 | -33.50346 | -59.56052 | 24036 ft | 387 kts | 319° |
| 2026-04-30 04:40 | -33.48059 | -59.57679 | 24036 ft | 387 kts | 319° |
| 2026-04-30 04:40 | -33.45746 | -59.59324 | 24014 ft | 387 kts | 320° |
| 2026-04-30 04:41 | -33.43427 | -59.60972 | 24038 ft | 387 kts | 320° |
| 2026-04-30 04:41 | -33.41108 | -59.62619 | 24033 ft | 387 kts | 320° |
| 2026-04-30 04:41 | -33.38789 | -59.64265 | 24040 ft | 387 kts | 320° |
| 2026-04-30 04:41 | -33.36467 | -59.65912 | 24037 ft | 387 kts | 320° |
| 2026-04-30 04:42 | -33.34151 | -59.67554 | 24040 ft | 387 kts | 320° |
| 2026-04-30 04:42 | -33.31827 | -59.69201 | 24037 ft | 387 kts | 320° |
| 2026-04-30 04:42 | -33.29513 | -59.70838 | 24042 ft | 387 kts | 320° |
| 2026-04-30 04:42 | -33.27160 | -59.72504 | 24013 ft | 387 kts | 320° |
| 2026-04-30 04:43 | -33.24866 | -59.74126 | 24035 ft | 387 kts | 320° |
| 2026-04-30 04:43 | -33.22548 | -59.75764 | 24034 ft | 387 kts | 320° |
| 2026-04-30 04:43 | -33.20229 | -59.77402 | 24039 ft | 388 kts | 320° |
| 2026-04-30 04:43 | -33.17904 | -59.79044 | 24040 ft | 388 kts | 320° |
| 2026-04-30 04:44 | -33.15570 | -59.80690 | 24039 ft | 388 kts | 320° |
| 2026-04-30 04:44 | -33.13243 | -59.82331 | 24038 ft | 389 kts | 320° |
| 2026-04-30 04:44 | -33.10909 | -59.83975 | 24038 ft | 389 kts | 320° |
| 2026-04-30 04:44 | -33.08575 | -59.85618 | 24038 ft | 389 kts | 320° |
| 2026-04-30 04:45 | -33.06247 | -59.87257 | 24025 ft | 389 kts | 320° |
| 2026-04-30 04:45 | -33.03879 | -59.88921 | 24031 ft | 389 kts | 320° |
| 2026-04-30 04:45 | -33.01576 | -59.90539 | 24038 ft | 389 kts | 320° |
| 2026-04-30 04:45 | -33.00000 | -59.91646 | 24040 ft | 389 kts | 320° |
| 2026-04-30 04:46 | -32.97667 | -59.93284 | 24041 ft | 389 kts | 320° |
| 2026-04-30 04:46 | -32.94575 | -59.95453 | 24040 ft | 389 kts | 320° |
| 2026-04-30 04:46 | -32.92247 | -59.97085 | 24040 ft | 388 kts | 320° |
| 2026-04-30 04:46 | -32.90673 | -59.98188 | 24041 ft | 388 kts | 320° |
| 2026-04-30 04:47 | -32.88370 | -59.99801 | 24023 ft | 388 kts | 320° |
| 2026-04-30 04:47 | -32.86014 | -60.01450 | 24029 ft | 388 kts | 320° |
| 2026-04-30 04:47 | -32.83689 | -60.03076 | 24036 ft | 388 kts | 320° |
| 2026-04-30 04:47 | -32.81353 | -60.04709 | 24041 ft | 389 kts | 320° |
| 2026-04-30 04:48 | -32.79019 | -60.06340 | 24046 ft | 389 kts | 320° |
| 2026-04-30 04:48 | -32.76711 | -60.07952 | 24044 ft | 389 kts | 320° |
| 2026-04-30 04:48 | -32.74491 | -60.09502 | 24386 ft | 390 kts | 325° |
| 2026-04-30 04:48 | -32.72218 | -60.11090 | 23931 ft | 395 kts | 323° |
| 2026-04-30 04:49 | -32.69871 | -60.12719 | 23957 ft | 385 kts | 321° |
| 2026-04-30 04:49 | -32.67565 | -60.14319 | 24005 ft | 384 kts | 321° |
| 2026-04-30 04:49 | -32.65251 | -60.15932 | 24034 ft | 386 kts | 321° |
| 2026-04-30 04:49 | -32.62928 | -60.17551 | 24032 ft | 388 kts | 321° |
| 2026-04-30 04:50 | -32.60600 | -60.19172 | 24041 ft | 389 kts | 321° |
| 2026-04-30 04:50 | -32.58266 | -60.20795 | 24041 ft | 389 kts | 321° |
| 2026-04-30 04:50 | -32.55930 | -60.22417 | 24038 ft | 388 kts | 321° |
| 2026-04-30 04:50 | -32.53597 | -60.24035 | 24037 ft | 387 kts | 321° |
| 2026-04-30 04:51 | -32.51288 | -60.25633 | 23892 ft | 381 kts | 321° |
| 2026-04-30 04:51 | -32.49003 | -60.27213 | 23513 ft | 378 kts | 321° |
| 2026-04-30 04:51 | -32.46739 | -60.28781 | 23007 ft | 375 kts | 321° |
| 2026-04-30 04:51 | -32.44491 | -60.30335 | 22497 ft | 370 kts | 321° |
| 2026-04-30 04:52 | -32.42279 | -60.31864 | 21999 ft | 366 kts | 321° |
| 2026-04-30 04:52 | -32.40088 | -60.33380 | 21510 ft | 363 kts | 321° |
| 2026-04-30 04:52 | -32.37919 | -60.34879 | 21024 ft | 360 kts | 321° |
| 2026-04-30 04:52 | -32.35792 | -60.36348 | 20556 ft | 357 kts | 322° |
| 2026-04-30 04:53 | -32.33658 | -60.37823 | 20070 ft | 354 kts | 322° |
| 2026-04-30 04:53 | -32.31513 | -60.39304 | 19591 ft | 351 kts | 322° |
| 2026-04-30 04:53 | -32.29434 | -60.40738 | 19123 ft | 349 kts | 322° |
| 2026-04-30 04:53 | -32.27336 | -60.42185 | 18631 ft | 347 kts | 322° |
| 2026-04-30 04:54 | -32.25255 | -60.43620 | 18103 ft | 346 kts | 322° |
| 2026-04-30 04:54 | -32.23180 | -60.45049 | 17586 ft | 344 kts | 322° |
| 2026-04-30 04:54 | -32.21120 | -60.46467 | 16849 ft | 346 kts | 323° |
| 2026-04-30 04:54 | -32.19066 | -60.48028 | 15857 ft | 352 kts | 315° |
| 2026-04-30 04:55 | -32.17225 | -60.49967 | 14817 ft | 360 kts | 312° |
| 2026-04-30 04:55 | -32.15374 | -60.52020 | 13773 ft | 369 kts | 312° |
| 2026-04-30 04:55 | -32.13488 | -60.54121 | 12629 ft | 376 kts | 313° |
| 2026-04-30 04:55 | -32.11564 | -60.56252 | 11527 ft | 381 kts | 313° |
| 2026-04-30 04:56 | -32.09608 | -60.58403 | 10477 ft | 388 kts | 313° |
| 2026-04-30 04:56 | -32.07642 | -60.60553 | 9446 ft | 389 kts | 314° |
| 2026-04-30 04:56 | -32.05654 | -60.62714 | 8720 ft | 375 kts | 315° |
| 2026-04-30 04:56 | -32.03764 | -60.64762 | 7711 ft | 363 kts | 315° |
| 2026-04-30 04:57 | -32.01931 | -60.66749 | 6702 ft | 355 kts | 316° |
| 2026-04-30 04:57 | -32.00156 | -60.68675 | 5686 ft | 347 kts | 316° |
| 2026-04-30 04:57 | -31.98400 | -60.70579 | 4928 ft | 334 kts | 316° |
| 2026-04-30 04:57 | -31.96763 | -60.72353 | 4701 ft | 307 kts | 316° |
| 2026-04-30 04:58 | -31.95248 | -60.73994 | 4428 ft | 287 kts | 316° |
| 2026-04-30 04:58 | -31.93832 | -60.75526 | 4307 ft | 265 kts | 316° |
| 2026-04-30 04:58 | -31.92508 | -60.76960 | 4339 ft | 254 kts | 316° |
| 2026-04-30 04:58 | -31.91196 | -60.78381 | 4363 ft | 254 kts | 316° |
| 2026-04-30 04:59 | -31.89863 | -60.79825 | 3812 ft | 270 kts | 317° |
| 2026-04-30 04:59 | -31.88497 | -60.81302 | 3490 ft | 267 kts | 317° |
| 2026-04-30 04:59 | -31.87156 | -60.82752 | 3339 ft | 257 kts | 317° |
| 2026-04-30 04:59 | -31.85871 | -60.84135 | 3241 ft | 241 kts | 318° |
| 2026-04-30 05:00 | -31.84665 | -60.85404 | 3078 ft | 225 kts | 321° |
| 2026-04-30 05:00 | -31.83373 | -60.86311 | 2925 ft | 209 kts | 340° |
| 2026-04-30 05:00 | -31.81981 | -60.86558 | 2525 ft | 199 kts | 4° |
| 2026-04-30 05:00 | -31.80690 | -60.86087 | 2046 ft | 192 kts | 27° |
| 2026-04-30 05:01 | -31.79535 | -60.85353 | 1618 ft | 185 kts | 27° |
| 2026-04-30 05:01 | -31.78381 | -60.84733 | 1207 ft | 178 kts | 21° |
| 2026-04-30 05:01 | -31.77282 | -60.84231 | 1041 ft | 156 kts | 22° |
| 2026-04-30 05:01 | -31.76335 | -60.83744 | 794 ft | 143 kts | 24° |
| 2026-04-30 05:02 | -31.75457 | -60.83275 | 538 ft | 134 kts | 24° |
| 2026-04-30 05:02 | -31.74601 | -60.82845 | 409 ft | 134 kts | 20° |
| 2026-04-30 05:02 | -31.73725 | -60.82436 | 345 ft | 137 kts | 22° |
| 2026-04-30 05:02 | -31.72840 | -60.81994 | 227 ft | 138 kts | 22° |
| 2026-04-30 05:03 | -31.71960 | -60.81563 | 71 ft | 137 kts | 22° |
| 2026-04-30 05:03 | -31.71175 | -60.81176 | 64 ft | 102 kts | 22° |
| 2026-04-30 05:03 | -31.70738 | -60.80960 | 65 ft | 24 kts | 26° |
| 2026-04-30 05:03 | -31.70749 | -60.80833 | 64 ft | 14 kts | 112° |
| 2026-04-30 05:04 | -31.70762 | -60.80798 | 64 ft | 0 kts | 114° |
| 2026-04-30 05:04 | -31.70765 | -60.80792 | 57 ft | 4 kts | 114° |
| 2026-04-30 05:05 | -31.70788 | -60.80732 | 61 ft | 10 kts | 114° |
| 2026-04-30 05:05 | -31.70826 | -60.80682 | 62 ft | 9 kts | 183° |
| 2026-04-30 05:05 | -31.70881 | -60.80710 | 64 ft | 8 kts | 204° |
| 2026-04-30 05:06 | -31.70929 | -60.80688 | 60 ft | 3 kts | 160° |
| 2026-04-30 05:06 | -31.70940 | -60.80684 | 57 ft | 0 kts | 163° |